Time;durP1;ratioP1;P1;durP2;ratioP2;P2;SDS_P1;SDS_P2;PMS_P1;PMS_P2;Temp;Humidity;BMP_temperature;BMP_pressure;BME280_temperature;BME280_humidity;BME280_pressure;Samples;Min_cycle;Max_cycle;Signal;HPM_P1;HPM_P2
2023/04/22 00:00:17;;;;;;;109.00;103.95;;;11.20;99.90;;;;;;5086336;28;20036;-69
2023/04/22 00:02:44;;;;;;;102.05;97.38;;;11.10;99.90;;;;;;5087221;28;20040;-69
2023/04/22 00:05:12;;;;;;;98.72;94.18;;;11.10;99.90;;;;;;5088067;28;20497;-69
2023/04/22 00:07:41;;;;;;;83.25;79.38;;;11.00;99.90;;;;;;5083860;28;20051;-69
2023/04/22 00:10:08;;;;;;;92.75;88.30;;;11.00;99.90;;;;;;5085871;28;20075;-70
2023/04/22 00:12:34;;;;;;;83.10;79.13;;;10.90;99.90;;;;;;5081895;28;20048;-69
2023/04/22 00:15:00;;;;;;;78.07;74.32;;;10.90;99.90;;;;;;5089242;28;20043;-69
2023/04/22 00:17:25;;;;;;;75.00;71.25;;;10.80;99.90;;;;;;5085104;28;20032;-69
2023/04/22 00:19:51;;;;;;;77.43;73.75;;;10.70;99.90;;;;;;5086469;28;20032;-69
2023/04/22 00:22:17;;;;;;;83.47;79.55;;;10.60;99.90;;;;;;5086192;28;20044;-69
2023/04/22 00:24:43;;;;;;;108.63;103.57;;;10.50;99.90;;;;;;5088805;28;20040;-69
2023/04/22 00:27:08;;;;;;;92.15;87.80;;;10.40;99.90;;;;;;5087300;28;20135;-69
2023/04/22 00:29:34;;;;;;;94.15;89.65;;;10.30;99.90;;;;;;5086599;28;20071;-69
2023/04/22 00:32:00;;;;;;;80.35;76.32;;;10.20;99.90;;;;;;5085776;28;20469;-69
2023/04/22 00:34:25;;;;;;;86.63;82.20;;;10.10;99.90;;;;;;5086632;28;20460;-69
2023/04/22 00:36:51;;;;;;;100.50;95.85;;;10.00;99.90;;;;;;5087850;28;20035;-69
2023/04/22 00:39:17;;;;;;;94.28;89.75;;;9.90;99.90;;;;;;5071462;28;20471;-69
2023/04/22 00:41:42;;;;;;;81.35;77.25;;;9.90;99.90;;;;;;5102818;28;20093;-69
2023/04/22 00:44:10;;;;;;;110.30;105.18;;;9.80;99.90;;;;;;5088207;28;20046;-69
2023/04/22 00:46:37;;;;;;;121.63;115.97;;;9.70;99.90;;;;;;5086330;28;20039;-69
2023/04/22 00:49:04;;;;;;;111.50;106.38;;;9.60;99.90;;;;;;5082687;28;20503;-69
2023/04/22 00:51:30;;;;;;;86.95;82.75;;;9.60;99.90;;;;;;5087897;28;20402;-69
2023/04/22 00:53:56;;;;;;;87.70;83.45;;;9.50;99.90;;;;;;5068316;28;20387;-70
2023/04/22 00:56:25;;;;;;;107.28;102.30;;;9.40;99.90;;;;;;5086625;28;20043;-69
2023/04/22 00:58:52;;;;;;;133.73;127.45;;;9.30;99.90;;;;;;5085479;28;20110;-69
2023/04/22 01:01:18;;;;;;;144.85;138.27;;;9.30;99.90;;;;;;5086766;28;20040;-69
2023/04/22 01:03:46;;;;;;;152.35;145.52;;;9.20;99.90;;;;;;5086967;28;20047;-69
2023/04/22 01:06:12;;;;;;;148.85;142.23;;;9.10;99.90;;;;;;5068447;28;20044;-69
2023/04/22 01:08:39;;;;;;;142.02;135.50;;;9.10;99.90;;;;;;5086750;28;20101;-69
2023/04/22 01:11:05;;;;;;;169.65;161.98;;;9.00;99.90;;;;;;5088543;28;20156;-69
2023/04/22 01:13:31;;;;;;;156.68;149.60;;;9.00;99.90;;;;;;5066565;28;20474;-69
2023/04/22 01:15:59;;;;;;;163.77;156.25;;;9.00;99.90;;;;;;5086742;28;20039;-69
2023/04/22 01:18:25;;;;;;;156.77;149.50;;;9.00;99.90;;;;;;5084000;28;20500;-69
2023/04/22 01:20:51;;;;;;;157.98;150.75;;;9.00;99.90;;;;;;5070457;28;20059;-69
2023/04/22 01:23:21;;;;;;;171.57;163.88;;;9.00;99.90;;;;;;5070771;28;20075;-69
2023/04/22 01:25:47;;;;;;;161.98;154.43;;;9.10;99.90;;;;;;5086605;28;20145;-69
2023/04/22 01:28:14;;;;;;;162.10;154.57;;;9.10;99.90;;;;;;5068915;28;20044;-69
2023/04/22 01:30:40;;;;;;;131.90;125.65;;;9.00;99.90;;;;;;5070080;28;20135;-69
2023/04/22 01:33:06;;;;;;;151.65;144.63;;;9.10;99.90;;;;;;5086883;28;20086;-70
2023/04/22 01:35:35;;;;;;;148.60;141.40;;;9.10;99.90;;;;;;5085581;28;20395;-69
2023/04/22 01:38:06;;;;;;;138.15;131.50;;;9.20;99.90;;;;;;5069697;28;20397;-70
2023/04/22 01:40:32;;;;;;;125.57;119.50;;;9.20;99.90;;;;;;5069408;28;20039;-69
2023/04/22 01:42:59;;;;;;;130.50;123.95;;;9.20;99.90;;;;;;5080309;28;20486;-69
2023/04/22 01:45:25;;;;;;;126.53;120.18;;;9.20;99.90;;;;;;5083734;28;20499;-70
2023/04/22 01:47:51;;;;;;;130.00;123.68;;;9.20;99.90;;;;;;5067903;28;20071;-69
2023/04/22 01:50:17;;;;;;;113.63;107.78;;;9.20;99.90;;;;;;5083812;28;20070;-69
2023/04/22 01:52:42;;;;;;;110.13;104.32;;;9.20;99.90;;;;;;5081772;28;20033;-69
2023/04/22 01:55:09;;;;;;;112.10;105.97;;;9.20;99.90;;;;;;5086162;28;20028;-70
2023/04/22 01:57:34;;;;;;;105.45;99.28;;;9.10;99.90;;;;;;5085250;28;20032;-69
2023/04/22 02:00:00;;;;;;;90.85;86.00;;;9.10;99.90;;;;;;5086173;28;20032;-69
2023/04/22 02:02:26;;;;;;;98.55;93.38;;;9.00;99.90;;;;;;5102428;28;20043;-69
2023/04/22 02:04:52;;;;;;;106.25;100.63;;;9.00;99.90;;;;;;5084726;28;20126;-70
2023/04/22 02:07:18;;;;;;;98.55;92.72;;;9.00;99.90;;;;;;5086293;28;20067;-69
2023/04/22 02:09:43;;;;;;;85.97;81.10;;;9.00;99.90;;;;;;5083366;28;20040;-69
2023/04/22 02:12:09;;;;;;;93.72;88.50;;;9.00;99.90;;;;;;5085561;28;20043;-69
2023/04/22 02:14:34;;;;;;;110.55;104.85;;;8.90;99.90;;;;;;5086036;28;20561;-69
2023/04/22 02:17:01;;;;;;;102.95;97.55;;;9.00;99.90;;;;;;5067194;28;20039;-69
2023/04/22 02:19:27;;;;;;;93.18;88.05;;;9.10;99.90;;;;;;5085919;28;20102;-69
2023/04/22 02:21:53;;;;;;;86.97;81.97;;;9.00;99.90;;;;;;5118541;27;20048;-69
2023/04/22 02:24:18;;;;;;;98.03;92.65;;;9.00;99.90;;;;;;5068094;28;20671;-69
2023/04/22 02:26:46;;;;;;;92.82;87.43;;;9.00;99.90;;;;;;5086091;28;20135;-69
2023/04/22 02:29:12;;;;;;;77.10;72.28;;;9.00;99.90;;;;;;5083595;28;20056;-69
2023/04/22 02:31:37;;;;;;;86.95;82.15;;;9.00;99.90;;;;;;5082281;28;20050;-69
2023/04/22 02:34:03;;;;;;;96.28;91.05;;;8.90;99.90;;;;;;5084882;28;20040;-69
2023/04/22 02:36:30;;;;;;;90.95;85.70;;;8.80;99.90;;;;;;5068357;28;20032;-69
2023/04/22 02:38:56;;;;;;;89.28;84.10;;;8.80;99.90;;;;;;5082173;28;20051;-70
2023/04/22 02:41:22;;;;;;;79.45;74.13;;;8.70;99.90;;;;;;5082779;28;20039;-69
2023/04/22 02:43:48;;;;;;;77.60;72.60;;;8.70;99.90;;;;;;5068221;28;20043;-69
2023/04/22 02:46:15;;;;;;;122.22;80.03;;;8.60;99.90;;;;;;5084252;28;20070;-69
2023/04/22 02:48:41;;;;;;;79.00;73.30;;;8.60;99.90;;;;;;5067201;28;20036;-70
2023/04/22 02:51:07;;;;;;;359.67;82.63;;;8.50;99.90;;;;;;5084092;28;20051;-70
2023/04/22 02:53:33;;;;;;;86.50;78.43;;;8.40;99.90;;;;;;5085991;28;20452;-70
2023/04/22 02:55:59;;;;;;;82.18;77.82;;;8.40;99.90;;;;;;5066523;28;20506;-69
2023/04/22 02:58:25;;;;;;;74.82;70.03;;;8.40;99.90;;;;;;5084251;28;20089;-69
2023/04/22 03:00:51;;;;;;;73.95;69.43;;;8.30;99.90;;;;;;5067623;28;20577;-69
2023/04/22 03:03:17;;;;;;;69.55;65.03;;;8.30;99.90;;;;;;5082554;28;20036;-69
2023/04/22 03:05:42;;;;;;;71.93;67.20;;;8.30;99.90;;;;;;5084074;28;20147;-69
2023/04/22 03:08:08;;;;;;;76.82;71.97;;;8.30;99.90;;;;;;5082642;28;20040;-69
2023/04/22 03:10:34;;;;;;;85.38;79.95;;;8.40;99.90;;;;;;5085086;28;20043;-69
2023/04/22 03:13:00;;;;;;;76.60;71.28;;;8.40;99.90;;;;;;5084422;28;20048;-70
2023/04/22 03:15:25;;;;;;;76.97;72.30;;;8.40;99.90;;;;;;5083348;28;20507;-69
2023/04/22 03:17:51;;;;;;;69.72;65.35;;;8.30;99.90;;;;;;5082059;28;20036;-70
2023/04/22 03:20:17;;;;;;;66.50;62.15;;;8.30;99.90;;;;;;5084716;28;20570;-70
2023/04/22 03:22:43;;;;;;;70.70;65.72;;;8.30;99.90;;;;;;5087621;28;20055;-70
2023/04/22 03:25:10;;;;;;;74.32;69.25;;;8.30;99.90;;;;;;5088106;28;20507;-70
2023/04/22 03:27:35;;;;;;;77.45;72.22;;;8.30;99.90;;;;;;5073475;28;20109;-70
2023/04/22 03:30:02;;;;;;;68.45;64.03;;;8.30;99.90;;;;;;5092163;28;20051;-70
2023/04/22 03:32:27;;;;;;;74.07;69.15;;;8.20;99.90;;;;;;5092577;28;20047;-70
2023/04/22 03:34:53;;;;;;;61.92;57.67;;;8.20;99.90;;;;;;5091335;27;20459;-70
2023/04/22 03:37:18;;;;;;;64.05;59.42;;;8.10;99.90;;;;;;5090066;28;20078;-70
2023/04/22 03:39:44;;;;;;;73.30;68.50;;;8.10;99.90;;;;;;5091878;27;20384;-69
2023/04/22 03:42:11;;;;;;;66.90;62.38;;;8.10;99.90;;;;;;5074658;28;20046;-69
2023/04/22 03:44:36;;;;;;;62.20;57.72;;;8.10;99.90;;;;;;5092038;28;20035;-70
2023/04/22 03:47:02;;;;;;;63.25;58.58;;;8.10;99.90;;;;;;5074819;28;20036;-70
2023/04/22 03:49:27;;;;;;;62.25;57.53;;;8.00;99.90;;;;;;5089890;28;20044;-70
2023/04/22 03:51:53;;;;;;;62.58;57.67;;;7.90;99.90;;;;;;5089155;28;20039;-70
2023/04/22 03:54:19;;;;;;;69.05;63.88;;;7.90;99.90;;;;;;5105081;28;20114;-70
2023/04/22 03:56:45;;;;;;;60.65;56.17;;;7.90;99.90;;;;;;5088596;28;20382;-69
2023/04/22 03:59:10;;;;;;;566.55;74.15;;;7.80;99.90;;;;;;5108026;27;20084;-69
2023/04/22 04:01:36;;;;;;;108.03;64.13;;;7.70;99.90;;;;;;5074937;28;20043;-69
2023/04/22 04:04:01;;;;;;;107.80;67.80;;;7.70;99.90;;;;;;5072731;28;20122;-69
2023/04/22 04:06:27;;;;;;;73.30;67.90;;;7.70;99.90;;;;;;5075151;28;20044;-70
2023/04/22 04:08:53;;;;;;;72.47;67.13;;;7.70;99.90;;;;;;5089693;28;20414;-70
2023/04/22 04:11:19;;;;;;;74.60;69.50;;;7.70;99.90;;;;;;5107279;28;20059;-69
2023/04/22 04:13:45;;;;;;;73.93;68.85;;;7.70;99.90;;;;;;5090257;28;20035;-70
2023/04/22 04:16:10;;;;;;;69.32;64.40;;;7.70;99.90;;;;;;5092760;28;20050;-70
2023/04/22 04:18:37;;;;;;;64.15;59.60;;;7.70;99.90;;;;;;5091681;28;20521;-69
2023/04/22 04:21:03;;;;;;;73.85;68.80;;;7.80;99.90;;;;;;5091304;28;20031;-70
2023/04/22 04:23:28;;;;;;;93.05;87.03;;;7.90;99.90;;;;;;5090400;28;20380;-69
2023/04/22 04:25:54;;;;;;;93.88;87.72;;;7.90;99.90;;;;;;5091285;28;20032;-69
2023/04/22 04:28:20;;;;;;;94.38;88.10;;;7.90;99.90;;;;;;5087868;28;20059;-70
2023/04/22 04:30:46;;;;;;;81.03;75.40;;;7.90;99.90;;;;;;5091502;28;20047;-70
2023/04/22 04:33:32;;;;;;;82.10;76.63;;;7.90;99.90;;;;;;5088900;28;20057;-69
2023/04/22 04:35:59;;;;;;;76.53;70.70;;;7.90;99.90;;;;;;5046393;28;20762;-69
2023/04/22 04:38:25;;;;;;;79.03;73.38;;;7.90;99.90;;;;;;5047717;28;20600;-70
2023/04/22 04:40:52;;;;;;;80.47;75.03;;;7.90;99.90;;;;;;5012010;28;20520;-70
2023/04/22 04:43:18;;;;;;;76.10;70.72;;;7.90;99.90;;;;;;5013218;28;20126;-69
2023/04/22 04:45:45;;;;;;;70.78;65.97;;;7.90;99.90;;;;;;5028683;28;20441;-69
2023/04/22 04:48:11;;;;;;;66.40;61.83;;;7.80;99.90;;;;;;5044679;28;20091;-70
2023/04/22 04:50:37;;;;;;;62.28;57.83;;;7.80;99.90;;;;;;5026612;28;20044;-70
2023/04/22 04:53:02;;;;;;;58.92;54.83;;;7.90;99.90;;;;;;5028532;28;20049;-70
2023/04/22 04:55:28;;;;;;;68.45;63.75;;;8.00;99.90;;;;;;5029617;28;20202;-70
2023/04/22 04:57:54;;;;;;;92.53;87.20;;;8.10;99.90;;;;;;5029397;28;20037;-70
2023/04/22 05:00:19;;;;;;;96.50;90.85;;;8.10;99.90;;;;;;5061346;28;20049;-70
2023/04/22 05:02:45;;;;;;;86.30;81.18;;;8.20;99.90;;;;;;5012379;28;20356;-70
2023/04/22 05:05:10;;;;;;;80.97;76.05;;;8.20;99.90;;;;;;5029539;28;20136;-70
2023/04/22 05:07:36;;;;;;;95.30;89.75;;;8.30;99.90;;;;;;5028699;28;20619;-70
2023/04/22 05:10:02;;;;;;;95.63;90.00;;;8.40;99.90;;;;;;5062481;28;20072;-70
2023/04/22 05:12:28;;;;;;;95.00;89.40;;;8.40;99.90;;;;;;5040559;28;20048;-70
2023/04/22 05:14:54;;;;;;;90.53;84.95;;;8.50;99.90;;;;;;5108757;28;20035;-70
2023/04/22 05:17:19;;;;;;;85.03;79.65;;;8.50;99.90;;;;;;5087980;28;20059;-70
2023/04/22 05:19:45;;;;;;;85.30;80.07;;;8.60;99.90;;;;;;5108758;28;20035;-70
2023/04/22 05:22:11;;;;;;;74.70;69.93;;;8.60;99.90;;;;;;5090382;28;20054;-70
2023/04/22 05:24:36;;;;;;;71.97;67.40;;;8.70;99.90;;;;;;5090722;27;20776;-70
2023/04/22 05:27:02;;;;;;;70.82;66.13;;;8.70;99.90;;;;;;5103005;28;20043;-70
2023/04/22 05:29:28;;;;;;;65.15;60.90;;;8.80;99.90;;;;;;5082169;28;20044;-70
2023/04/22 05:31:53;;;;;;;71.82;67.32;;;8.90;99.90;;;;;;5090002;28;20044;-70
2023/04/22 05:34:19;;;;;;;70.25;65.85;;;8.90;99.90;;;;;;5089782;28;20036;-70
2023/04/22 05:36:45;;;;;;;65.00;60.13;;;8.90;99.90;;;;;;5068606;28;20124;-70
2023/04/22 05:39:11;;;;;;;62.47;58.17;;;9.00;99.90;;;;;;5074210;28;20040;-70
2023/04/22 05:41:37;;;;;;;59.65;55.53;;;9.10;99.90;;;;;;5103425;28;20068;-70
2023/04/22 05:44:03;;;;;;;55.65;51.75;;;9.20;99.90;;;;;;5089220;28;20067;-70
2023/04/22 05:46:28;;;;;;;54.22;50.28;;;9.20;99.90;;;;;;5071454;28;20394;-70
2023/04/22 05:48:54;;;;;;;52.65;48.90;;;9.20;99.90;;;;;;5088719;28;20178;-70
2023/04/22 05:51:21;;;;;;;49.78;46.03;;;9.30;99.90;;;;;;5086234;28;20076;-70
2023/04/22 05:53:46;;;;;;;51.90;48.00;;;9.30;99.90;;;;;;5088457;28;20097;-70
2023/04/22 05:56:12;;;;;;;52.05;48.25;;;9.40;99.90;;;;;;5069870;28;20039;-70
2023/04/22 05:58:38;;;;;;;49.67;45.90;;;9.50;99.90;;;;;;5089903;28;20035;-70
2023/04/22 06:01:03;;;;;;;47.78;44.08;;;9.50;99.90;;;;;;5086297;28;20566;-70
2023/04/22 06:03:29;;;;;;;48.53;45.03;;;9.60;99.90;;;;;;5089372;28;20168;-70
2023/04/22 06:05:54;;;;;;;46.50;43.13;;;9.60;99.90;;;;;;5087789;28;20035;-70
2023/04/22 06:08:20;;;;;;;48.20;44.60;;;9.60;99.90;;;;;;5103965;28;20448;-70
2023/04/22 06:10:46;;;;;;;46.95;43.55;;;9.60;99.90;;;;;;5086908;28;20041;-70
2023/04/22 06:13:11;;;;;;;47.38;43.88;;;9.70;99.90;;;;;;5088292;28;20070;-70
2023/04/22 06:15:37;;;;;;;47.78;44.47;;;9.70;99.90;;;;;;5106084;28;20372;-70
2023/04/22 06:18:03;;;;;;;48.97;45.58;;;9.80;99.90;;;;;;5088024;28;20039;-70
2023/04/22 06:20:31;;;;;;;48.30;45.00;;;9.90;99.90;;;;;;5089009;28;20039;-70
2023/04/22 06:22:57;;;;;;;46.42;43.15;;;9.90;99.90;;;;;;5086335;28;20161;-70
2023/04/22 06:25:23;;;;;;;46.88;43.53;;;10.00;99.90;;;;;;5089171;28;20098;-70
2023/04/22 06:27:49;;;;;;;44.97;41.97;;;10.00;99.90;;;;;;5086048;28;20143;-70
2023/04/22 06:30:14;;;;;;;46.00;42.80;;;10.10;99.90;;;;;;5083954;28;20688;-70
2023/04/22 06:32:40;;;;;;;47.55;44.17;;;10.20;99.90;;;;;;5081321;28;20039;-70
2023/04/22 06:35:06;;;;;;;46.08;42.95;;;10.30;99.90;;;;;;5069220;28;20118;-70
2023/04/22 06:37:32;;;;;;;45.75;42.22;;;10.50;99.90;;;;;;5080007;28;20126;-70
2023/04/22 06:39:57;;;;;;;45.83;42.53;;;10.60;99.90;;;;;;5085361;27;20119;-70
2023/04/22 06:42:23;;;;;;;43.80;40.72;;;10.70;99.90;;;;;;5100912;28;20465;-70
2023/04/22 06:44:52;;;;;;;44.17;40.85;;;10.80;99.90;;;;;;5086857;28;20517;-70
2023/04/22 06:47:17;;;;;;;42.15;38.85;;;10.90;99.90;;;;;;5089360;28;20130;-70
2023/04/22 06:49:44;;;;;;;41.90;38.95;;;11.00;99.90;;;;;;5089042;28;20130;-70
2023/04/22 06:52:09;;;;;;;48.78;45.38;;;11.10;99.90;;;;;;5085905;28;20395;-70
2023/04/22 06:54:37;;;;;;;52.88;49.22;;;11.20;99.90;;;;;;5071594;28;20039;-70
2023/04/22 06:57:02;;;;;;;62.63;58.80;;;11.30;99.90;;;;;;5086034;28;20031;-70
2023/04/22 06:59:28;;;;;;;68.40;64.50;;;11.40;99.90;;;;;;5104753;28;20479;-70
2023/04/22 07:01:54;;;;;;;62.53;58.83;;;11.40;99.90;;;;;;5086933;28;20114;-70
2023/04/22 07:04:19;;;;;;;76.53;72.32;;;11.50;99.90;;;;;;5086897;28;20043;-70
2023/04/22 07:06:45;;;;;;;89.65;85.05;;;11.60;99.90;;;;;;5087759;28;20047;-70
2023/04/22 07:09:11;;;;;;;85.70;81.30;;;11.60;99.90;;;;;;5085714;28;20049;-70
2023/04/22 07:11:37;;;;;;;94.13;89.43;;;11.70;99.90;;;;;;5086321;28;20042;-68
2023/04/22 07:14:02;;;;;;;90.10;85.53;;;11.80;99.90;;;;;;5082750;28;20047;-68
2023/04/22 07:16:28;;;;;;;82.53;78.13;;;11.80;99.90;;;;;;5086439;28;20465;-68
2023/04/22 07:18:53;;;;;;;82.10;77.78;;;11.90;99.90;;;;;;5090717;28;20032;-68
2023/04/22 07:21:19;;;;;;;74.05;69.95;;;12.00;99.90;;;;;;5082591;28;20079;-70
2023/04/22 07:23:45;;;;;;;63.88;60.08;;;12.10;99.90;;;;;;5082074;28;20043;-68
2023/04/22 07:26:10;;;;;;;68.50;64.50;;;12.20;99.90;;;;;;5088260;28;20517;-68
2023/04/22 07:28:36;;;;;;;65.15;61.35;;;12.20;99.90;;;;;;5085213;28;20419;-68
2023/04/22 07:31:02;;;;;;;67.95;64.18;;;12.30;99.90;;;;;;5086932;28;20050;-68
2023/04/22 07:33:27;;;;;;;72.45;68.45;;;12.50;99.90;;;;;;5088627;28;20038;-68
2023/04/22 07:35:53;;;;;;;60.97;57.38;;;12.60;99.90;;;;;;5101091;28;20039;-68
2023/04/22 07:38:19;;;;;;;47.00;44.05;;;12.70;99.90;;;;;;5122155;28;20291;-68
2023/04/22 07:40:45;;;;;;;46.08;43.05;;;12.90;99.90;;;;;;5086508;28;20115;-68
2023/04/22 07:43:10;;;;;;;66.72;62.97;;;13.00;99.90;;;;;;5087288;28;20043;-68
2023/04/22 07:45:36;;;;;;;45.20;42.20;;;13.10;99.90;;;;;;5067817;28;20047;-68
2023/04/22 07:48:03;;;;;;;40.28;37.72;;;13.30;99.90;;;;;;5086825;28;20037;-68
2023/04/22 07:50:28;;;;;;;36.72;34.25;;;13.50;99.90;;;;;;5121733;27;20031;-68
2023/04/22 07:52:54;;;;;;;30.30;28.00;;;13.60;99.90;;;;;;5104997;28;20156;-68
2023/04/22 07:55:20;;;;;;;28.10;25.85;;;13.70;99.90;;;;;;5068200;28;20152;-68
2023/04/22 07:57:45;;;;;;;28.40;26.10;;;13.80;99.90;;;;;;5122481;27;20071;-68
2023/04/22 08:00:13;;;;;;;33.22;30.80;;;13.90;99.90;;;;;;5085887;28;20126;-68
2023/04/22 08:02:39;;;;;;;31.25;28.95;;;14.10;99.90;;;;;;5119579;27;20502;-68
2023/04/22 08:05:05;;;;;;;32.58;30.30;;;14.20;99.90;;;;;;5085128;28;20047;-68
2023/04/22 08:07:31;;;;;;;25.42;23.45;;;14.30;99.90;;;;;;5085194;28;20132;-68
2023/04/22 08:09:56;;;;;;;37.45;35.10;;;14.50;99.90;;;;;;5090144;28;20507;-68
2023/04/22 08:12:22;;;;;;;42.80;39.90;;;14.60;99.90;;;;;;5087236;28;20064;-68
2023/04/22 08:14:48;;;;;;;52.15;48.97;;;14.70;99.90;;;;;;5087429;28;20058;-68
2023/04/22 08:17:13;;;;;;;27.25;25.15;;;14.80;99.90;;;;;;5125557;27;20168;-69
2023/04/22 08:19:39;;;;;;;52.20;49.15;;;15.00;99.90;;;;;;5088310;28;20039;-68
2023/04/22 08:22:04;;;;;;;42.45;39.83;;;15.10;99.90;;;;;;5123464;27;20054;-68
2023/04/22 08:24:31;;;;;;;37.80;35.10;;;15.30;99.90;;;;;;5084800;28;20428;-68
2023/04/22 08:26:57;;;;;;;32.65;30.30;;;15.40;99.90;;;;;;5091019;28;20495;-68
2023/04/22 08:29:22;;;;;;;38.40;35.90;;;15.60;99.90;;;;;;5088121;28;20063;-68
2023/04/22 08:31:48;;;;;;;30.20;27.90;;;15.70;99.90;;;;;;5106027;28;20052;-68
2023/04/22 08:34:13;;;;;;;37.22;34.67;;;15.70;99.90;;;;;;5092565;28;20063;-68
2023/04/22 08:36:39;;;;;;;28.38;26.30;;;15.90;99.90;;;;;;5105453;27;20581;-68
2023/04/22 08:39:05;;;;;;;59.63;56.28;;;16.20;99.90;;;;;;5086366;28;20557;-68
2023/04/22 08:41:33;;;;;;;33.75;31.25;;;16.40;99.90;;;;;;5090091;28;20042;-68
2023/04/22 08:44:00;;;;;;;36.95;34.05;;;16.60;99.90;;;;;;5090846;28;20039;-69
2023/04/22 08:46:27;;;;;;;34.03;31.63;;;16.70;99.90;;;;;;5072385;28;20161;-68
2023/04/22 08:48:53;;;;;;;34.35;31.95;;;16.80;99.90;;;;;;5089668;27;20054;-68
2023/04/22 08:51:19;;;;;;;36.00;33.47;;;16.90;99.90;;;;;;5086376;28;20507;-68
2023/04/22 08:53:45;;;;;;;37.55;35.03;;;17.20;99.90;;;;;;5072873;28;20038;-68
2023/04/22 08:56:14;;;;;;;32.65;30.20;;;17.60;99.90;;;;;;5089622;28;20093;-68
2023/04/22 08:58:40;;;;;;;32.40;30.20;;;17.60;99.90;;;;;;5075848;27;20035;-68
2023/04/22 09:01:07;;;;;;;37.35;34.85;;;17.40;99.90;;;;;;5090993;28;20089;-68
2023/04/22 09:03:36;;;;;;;32.65;30.35;;;17.30;99.90;;;;;;5089262;28;20028;-68
2023/04/22 09:06:03;;;;;;;35.03;32.72;;;17.50;99.90;;;;;;5120413;27;20032;-68
2023/04/22 09:08:30;;;;;;;36.33;33.80;;;17.70;99.90;;;;;;5090638;28;20063;-68
2023/04/22 09:10:57;;;;;;;37.67;34.97;;;18.00;99.90;;;;;;5085738;27;20048;-68
2023/04/22 09:13:24;;;;;;;37.28;34.78;;;18.30;99.90;;;;;;5087807;28;20109;-68
2023/04/22 09:15:50;;;;;;;37.45;34.85;;;18.40;99.90;;;;;;5090769;28;20477;-68
2023/04/22 09:18:18;;;;;;;35.28;32.88;;;18.70;99.90;;;;;;5088735;28;20035;-68
2023/04/22 09:20:45;;;;;;;33.25;30.90;;;19.10;99.90;;;;;;5088619;28;20101;-68
2023/04/22 09:23:13;;;;;;;37.88;35.38;;;19.30;99.90;;;;;;5086194;28;20486;-68
2023/04/22 09:25:40;;;;;;;35.08;32.78;;;19.50;99.90;;;;;;5087091;28;20035;-68
2023/04/22 09:28:10;;;;;;;30.95;28.65;;;19.50;99.90;;;;;;5090560;28;20162;-68
2023/04/22 09:30:36;;;;;;;38.47;36.03;;;19.60;99.90;;;;;;5068852;28;20051;-69
2023/04/22 09:33:04;;;;;;;38.28;35.88;;;19.60;99.90;;;;;;5081925;28;20043;-69
2023/04/22 09:35:35;;;;;;;42.25;39.72;;;19.60;99.90;;;;;;5083036;28;20031;-69
2023/04/22 09:38:06;;;;;;;45.13;42.53;;;19.40;99.90;;;;;;5087981;28;20395;-68
2023/04/22 09:40:33;;;;;;;46.22;43.50;;;19.00;99.90;;;;;;5083109;27;20050;-68
2023/04/22 09:43:01;;;;;;;45.58;42.92;;;18.80;99.90;;;;;;5071340;28;20039;-68
2023/04/22 09:45:31;;;;;;;37.08;34.83;;;18.70;99.90;;;;;;5071971;28;20069;-68
2023/04/22 09:48:00;;;;;;;42.80;40.15;;;18.60;99.90;;;;;;5091204;28;20466;-69
2023/04/22 09:50:27;;;;;;;46.17;43.47;;;18.60;99.90;;;;;;5085237;28;20051;-69
2023/04/22 09:53:02;;;;;;;45.17;42.47;;;18.50;99.90;;;;;;5087351;28;20075;-68
2023/04/22 09:55:30;;;;;;;42.28;39.78;;;18.50;99.90;;;;;;5085307;28;20031;-68
2023/04/22 09:57:57;;;;;;;47.88;45.10;;;18.40;99.90;;;;;;5067332;28;20295;-68
2023/04/22 10:00:32;;;;;;;63.90;60.45;;;18.40;99.90;;;;;;5081834;28;20117;-68
2023/04/22 10:02:57;;;;;;;52.97;49.88;;;18.40;99.90;;;;;;5099549;27;20039;-68
2023/04/22 10:05:44;;;;;;;49.42;46.72;;;18.60;99.90;;;;;;5063079;28;20501;-68
2023/04/22 10:08:12;;;;;;;42.88;40.33;;;18.90;99.90;;;;;;5008512;28;20164;-69
2023/04/22 10:10:38;;;;;;;45.45;42.72;;;19.30;99.90;;;;;;5005011;28;20060;-69
2023/04/22 10:13:04;;;;;;;46.55;43.88;;;19.50;99.90;;;;;;5024503;28;20644;-68
2023/04/22 10:15:38;;;;;;;33.10;30.90;;;19.60;99.90;;;;;;5015114;28;20141;-69
2023/04/22 10:18:07;;;;;;;45.28;42.65;;;19.80;99.90;;;;;;5003445;28;20061;-68
2023/04/22 10:20:39;;;;;;;35.00;32.78;;;19.90;99.90;;;;;;5003401;28;20049;-68
2023/04/22 10:23:18;;;;;;;38.75;36.25;;;20.20;99.90;;;;;;5018308;28;20049;-68
2023/04/22 10:25:48;;;;;;;41.13;38.83;;;20.50;99.90;;;;;;5023531;28;20057;-68
2023/04/22 10:28:16;;;;;;;33.97;31.75;;;20.80;99.90;;;;;;5006214;28;20049;-69
2023/04/22 10:30:41;;;;;;;22.08;20.27;;;20.90;99.90;;;;;;5006348;28;20041;-69
2023/04/22 10:33:30;;;;;;;22.15;20.45;;;20.90;99.90;;;;;;5006202;28;20067;-68
2023/04/22 10:36:09;;;;;;;28.80;26.90;;;20.80;99.90;;;;;;5007002;28;20049;-68
2023/04/22 10:38:51;;;;;;;21.00;19.40;;;20.80;99.90;;;;;;5007204;28;20045;-68
2023/04/22 10:41:22;;;;;;;26.25;24.55;;;20.80;99.90;;;;;;5023667;28;20037;-69
2023/04/22 10:44:00;;;;;;;20.48;18.92;;;20.80;99.90;;;;;;5005874;28;20459;-68
2023/04/22 10:46:38;;;;;;;25.23;23.42;;;20.80;99.90;;;;;;5069513;28;20131;-68
2023/04/22 10:49:08;;;;;;;21.10;19.40;;;20.90;99.90;;;;;;5072480;28;20062;-69
2023/04/22 10:51:39;;;;;;;23.52;21.83;;;20.90;99.90;;;;;;5085584;28;20044;-69
2023/04/22 10:54:05;;;;;;;18.48;17.05;;;20.90;99.90;;;;;;5085223;28;20047;-68
2023/04/22 10:56:31;;;;;;;19.85;18.25;;;21.00;99.90;;;;;;5071093;28;20402;-69
2023/04/22 10:58:56;;;;;;;19.38;17.88;;;21.20;99.90;;;;;;5105460;28;20039;-68
2023/04/22 11:01:22;;;;;;;22.30;20.75;;;21.40;99.90;;;;;;5086449;28;20457;-68
2023/04/22 11:03:50;;;;;;;19.17;17.55;;;21.50;99.90;;;;;;5089885;28;20039;-68
2023/04/22 11:06:21;;;;;;;20.77;19.08;;;21.60;99.90;;;;;;5085917;28;20039;-68
2023/04/22 11:09:06;;;;;;;19.85;18.25;;;21.80;99.90;;;;;;5088797;28;21004;-68
2023/04/22 11:11:31;;;;;;;18.67;17.27;;;22.00;99.90;;;;;;5087027;28;20044;-69
2023/04/22 11:13:57;;;;;;;16.50;15.10;;;22.30;99.90;;;;;;5106773;28;20441;-69
2023/04/22 11:16:23;;;;;;;17.50;16.00;;;22.30;99.40;;;;;;5090700;28;20038;-69
2023/04/22 11:18:49;;;;;;;16.00;14.73;;;22.30;99.20;;;;;;5088618;28;20043;-69
2023/04/22 11:21:15;;;;;;;16.55;15.25;;;22.20;97.80;;;;;;5086221;28;20592;-68
2023/04/22 11:23:51;;;;;;;16.48;15.07;;;22.10;98.50;;;;;;5087961;28;20036;-68
2023/04/22 11:26:18;;;;;;;15.82;14.55;;;22.00;97.50;;;;;;5138929;27;20067;-68
2023/04/22 11:28:47;;;;;;;15.98;14.68;;;22.00;97.80;;;;;;5088436;28;20062;-68
2023/04/22 11:31:14;;;;;;;16.80;15.27;;;21.90;96.70;;;;;;5086963;28;20031;-68
2023/04/22 11:33:40;;;;;;;16.02;14.70;;;21.80;98.40;;;;;;5088733;28;20864;-68
2023/04/22 11:36:10;;;;;;;17.42;16.05;;;21.70;97.60;;;;;;5104646;28;20047;-68
2023/04/22 11:38:36;;;;;;;18.92;17.25;;;21.50;97.00;;;;;;5102965;28;20551;-69
2023/04/22 11:41:03;;;;;;;16.48;15.23;;;21.30;96.50;;;;;;5088497;28;20122;-68
2023/04/22 11:43:29;;;;;;;19.65;18.15;;;21.20;97.60;;;;;;5088620;28;20120;-68
2023/04/22 11:45:56;;;;;;;16.45;15.05;;;21.30;98.80;;;;;;5091399;28;20200;-68
2023/04/22 11:48:22;;;;;;;17.98;16.50;;;21.50;98.80;;;;;;5076342;28;20043;-68
2023/04/22 11:50:48;;;;;;;17.23;15.73;;;21.50;98.00;;;;;;5090927;28;20031;-68
2023/04/22 11:53:22;;;;;;;17.65;16.20;;;21.50;98.80;;;;;;5109079;28;20414;-68
2023/04/22 11:55:49;;;;;;;;;;;21.60;98.70;;;;;;5089414;28;20538;-68
2023/04/22 11:58:18;;;;;;;15.45;14.15;;;21.80;98.60;;;;;;5090698;28;19927;-68
2023/04/22 12:00:48;;;;;;;15.00;13.73;;;22.00;99.30;;;;;;5092048;27;20602;-69
2023/04/22 12:03:19;;;;;;;15.57;14.18;;;22.10;99.40;;;;;;5091123;28;20040;-69
2023/04/22 12:05:48;;;;;;;15.50;14.23;;;22.20;99.00;;;;;;5091015;28;20039;-68
2023/04/22 12:08:17;;;;;;;16.42;15.02;;;22.30;98.00;;;;;;5110626;28;20050;-69
2023/04/22 12:10:54;;;;;;;19.27;17.77;;;22.10;96.70;;;;;;5091006;28;20054;-68
2023/04/22 12:13:25;;;;;;;17.45;15.80;;;21.90;97.10;;;;;;5091476;28;20071;-69
2023/04/22 12:15:56;;;;;;;18.42;17.10;;;21.80;96.60;;;;;;5075724;27;20424;-68
2023/04/22 12:18:33;;;;;;;22.63;21.02;;;21.60;96.50;;;;;;5106032;28;20366;-68
2023/04/22 12:21:01;;;;;;;25.25;23.52;;;21.20;95.70;;;;;;5074289;28;20061;-69
2023/04/22 12:23:27;;;;;;;20.48;18.77;;;20.80;95.80;;;;;;5089633;28;20038;-68
2023/04/22 12:25:53;;;;;;;19.05;17.58;;;20.50;96.90;;;;;;5073449;28;20134;-68
2023/04/22 12:28:19;;;;;;;18.33;16.75;;;20.30;97.90;;;;;;5088814;28;20059;-68